createdAt,value
2019-01-02T00:00:29.816Z,89.90
2019-01-02T00:02:58.247Z,90.00
2019-01-02T00:05:26.752Z,90.20
2019-01-02T00:07:55.253Z,90.50
2019-01-02T00:10:24.174Z,90.10
2019-01-02T00:12:52.626Z,90.10
2019-01-02T00:15:21.453Z,89.70
2019-01-02T00:17:49.922Z,89.30
2019-01-02T00:20:18.863Z,88.70
2019-01-02T00:22:47.306Z,89.20
2019-01-02T00:25:15.779Z,88.00
2019-01-02T00:27:44.222Z,88.10
2019-01-02T00:30:12.681Z,88.40
2019-01-02T00:32:41.701Z,88.30
2019-01-02T00:35:10.169Z,89.30
2019-01-02T00:37:39.278Z,89.40
2019-01-02T00:40:10.872Z,89.60
2019-01-02T00:42:39.786Z,89.90
2019-01-02T00:45:09.242Z,90.10
2019-01-02T00:47:38.734Z,90.50
2019-01-02T00:50:10.274Z,91.30
2019-01-02T00:52:39.115Z,91.50
2019-01-02T00:55:08.495Z,92.20
2019-01-02T00:57:37.405Z,92.50
2019-01-02T01:00:14.135Z,92.70
2019-01-02T01:02:43.431Z,92.50
2019-01-02T01:05:11.904Z,93.00
2019-01-02T01:07:41.110Z,92.50
2019-01-02T01:10:12.484Z,93.00
2019-01-02T01:12:41.519Z,93.00
2019-01-02T01:15:10.439Z,93.30
2019-01-02T01:17:39.458Z,93.30
2019-01-02T01:20:11.598Z,93.30
2019-01-02T01:22:40.374Z,92.60
2019-01-02T01:25:08.831Z,91.70
2019-01-02T01:27:37.282Z,92.30
2019-01-02T01:30:09.350Z,92.20
2019-01-02T01:32:38.094Z,91.30
2019-01-02T01:35:09.866Z,91.80
2019-01-02T01:37:40.641Z,91.60
2019-01-02T01:40:11.522Z,91.40
2019-01-02T01:42:39.986Z,90.50
2019-01-02T01:45:10.678Z,90.50
2019-01-02T01:47:39.128Z,90.10
2019-01-02T01:50:23.319Z,90.20
2019-01-02T01:52:51.743Z,90.10
2019-01-02T01:55:20.186Z,89.50
2019-01-02T01:57:49.114Z,89.50
2019-01-02T02:00:18.304Z,89.80
2019-01-02T02:02:47.085Z,88.90
2019-01-02T02:05:16.101Z,88.20
2019-01-02T02:07:44.580Z,87.70
2019-01-02T02:10:15.617Z,87.30
2019-01-02T02:12:44.092Z,85.40
2019-01-02T02:15:12.966Z,84.10
2019-01-02T02:17:42.354Z,83.70
2019-01-02T02:20:12.843Z,83.40
2019-01-02T02:22:41.285Z,82.60
2019-01-02T02:25:15.703Z,81.60
2019-01-02T02:27:45.116Z,81.70
2019-01-02T02:30:15.580Z,80.60
2019-01-02T02:32:45.740Z,81.10
2019-01-02T02:35:14.681Z,80.70
2019-01-02T02:37:43.525Z,80.90
2019-01-02T02:40:14.888Z,81.40
2019-01-02T02:42:43.367Z,82.10
2019-01-02T02:45:13.686Z,82.10
2019-01-02T02:47:42.811Z,82.40
2019-01-02T02:50:13.780Z,82.60
2019-01-02T02:52:42.582Z,82.90
2019-01-02T02:55:13.942Z,82.50
2019-01-02T02:57:42.408Z,82.40
2019-01-02T03:00:16.674Z,81.00
2019-01-02T03:02:46.188Z,81.30
2019-01-02T03:05:15.969Z,81.50
2019-01-02T03:07:44.899Z,81.40
2019-01-02T03:10:15.661Z,81.50
2019-01-02T03:12:45.075Z,81.50
2019-01-02T03:15:14.360Z,81.10
2019-01-02T03:17:42.811Z,81.60
2019-01-02T03:20:13.499Z,81.00
2019-01-02T03:22:42.518Z,81.30
2019-01-02T03:25:13.720Z,82.40
2019-01-02T03:27:43.007Z,81.40
2019-01-02T03:30:14.719Z,81.90
2019-01-02T03:32:43.751Z,82.70
2019-01-02T03:35:12.956Z,82.70
2019-01-02T03:37:41.438Z,83.60
2019-01-02T03:40:12.264Z,83.80
2019-01-02T03:42:40.719Z,84.40
2019-01-02T03:45:14.769Z,84.00
2019-01-02T03:47:43.549Z,84.50
2019-01-02T03:50:14.875Z,84.30
2019-01-02T03:52:43.308Z,84.30
2019-01-02T03:55:12.076Z,84.30
2019-01-02T03:57:40.558Z,84.60
2019-01-02T04:00:12.603Z,84.30
2019-01-02T04:02:41.233Z,84.20
2019-01-02T04:05:13.055Z,84.10
2019-01-02T04:07:43.870Z,84.20
2019-01-02T04:10:14.059Z,84.50
2019-01-02T04:12:42.515Z,84.20
2019-01-02T04:15:11.247Z,84.30
2019-01-02T04:17:40.051Z,82.90
2019-01-02T04:20:10.535Z,82.90
2019-01-02T04:22:39.258Z,82.90
2019-01-02T04:25:09.275Z,82.30
2019-01-02T04:27:37.726Z,81.90
2019-01-02T04:30:14.632Z,81.60
2019-01-02T04:32:43.428Z,81.10
2019-01-02T04:35:11.899Z,81.60
2019-01-02T04:37:40.684Z,80.70
2019-01-02T04:40:13.264Z,80.80
2019-01-02T04:42:41.698Z,80.70
2019-01-02T04:45:11.569Z,80.10
2019-01-02T04:47:40.532Z,79.90
2019-01-02T04:50:11.682Z,80.50
2019-01-02T04:52:40.475Z,79.80
2019-01-02T04:55:09.316Z,80.00
2019-01-02T04:57:37.759Z,80.30
2019-01-02T05:00:14.623Z,80.60
2019-01-02T05:02:43.080Z,80.70
2019-01-02T05:05:11.560Z,80.30
2019-01-02T05:07:39.995Z,80.50
2019-01-02T05:10:11.694Z,80.00
2019-01-02T05:12:40.144Z,80.30
2019-01-02T05:15:10.723Z,80.10
2019-01-02T05:17:39.214Z,79.70
2019-01-02T05:20:10.944Z,80.00
2019-01-02T05:22:39.387Z,80.20
2019-01-02T05:25:09.222Z,79.70
2019-01-02T05:27:37.674Z,79.70
2019-01-02T05:30:12.210Z,79.70
2019-01-02T05:32:40.661Z,79.50
2019-01-02T05:35:10.324Z,79.60
2019-01-02T05:37:57.961Z,79.50
2019-01-02T05:40:26.437Z,79.30
2019-01-02T05:42:54.862Z,79.30
2019-01-02T05:45:23.307Z,79.20
2019-01-02T05:47:52.066Z,78.60
2019-01-02T05:50:20.528Z,79.60
2019-01-02T05:52:49.331Z,79.60
2019-01-02T05:55:17.785Z,79.40
2019-01-02T05:57:46.234Z,79.90
2019-01-02T06:00:15.825Z,79.60
2019-01-02T06:02:44.638Z,79.70
2019-01-02T06:05:13.377Z,78.80
2019-01-02T06:07:41.818Z,79.40
2019-01-02T06:10:12.329Z,78.80
2019-01-02T06:12:40.780Z,78.90
2019-01-02T06:15:12.099Z,78.80
2019-01-02T06:17:40.898Z,78.60
2019-01-02T06:20:12.216Z,78.80
2019-01-02T06:22:41.128Z,79.20
2019-01-02T06:25:09.579Z,78.70
2019-01-02T06:27:38.033Z,78.90
2019-01-02T06:30:11.189Z,78.80
2019-01-02T06:32:40.272Z,78.80
2019-01-02T06:35:09.560Z,78.50
2019-01-02T06:37:38.368Z,78.60
2019-01-02T06:40:10.110Z,78.30
2019-01-02T06:42:38.898Z,78.20
2019-01-02T06:45:10.750Z,78.60
2019-01-02T06:47:39.203Z,78.30
2019-01-02T06:50:16.422Z,78.30
2019-01-02T06:52:44.885Z,77.90
2019-01-02T06:55:13.325Z,78.30
2019-01-02T06:57:48.155Z,77.80
2019-01-02T07:00:25.451Z,78.30
2019-01-02T07:02:53.923Z,78.60
2019-01-02T07:05:22.463Z,78.40
2019-01-02T07:07:51.244Z,78.30
2019-01-02T07:10:20.025Z,77.90
2019-01-02T07:12:48.823Z,77.70
2019-01-02T07:15:17.276Z,78.00
2019-01-02T07:17:45.702Z,78.10
2019-01-02T07:20:14.315Z,78.10
2019-01-02T07:22:42.745Z,78.00
2019-01-02T07:25:11.522Z,78.30
2019-01-02T07:27:40.310Z,78.40
2019-01-02T07:30:18.075Z,78.50
2019-01-02T07:32:46.527Z,78.70
2019-01-02T07:35:36.090Z,78.80
2019-01-02T07:38:10.576Z,78.50
2019-01-02T07:40:48.203Z,78.90
2019-01-02T07:43:36.589Z,79.30
2019-01-02T07:46:14.380Z,79.30
2019-01-02T07:48:49.672Z,78.80
2019-01-02T07:51:21.222Z,78.80
2019-01-02T07:53:58.427Z,78.90
2019-01-02T07:56:44.797Z,78.80
2019-01-02T07:59:44.439Z,78.90
2019-01-02T08:02:37.246Z,78.90
2019-01-02T08:05:17.405Z,78.70
2019-01-02T08:07:52.082Z,79.20
2019-01-02T08:10:40.235Z,78.90
2019-01-02T08:13:17.804Z,79.30
2019-01-02T08:15:52.099Z,79.30
2019-01-02T08:18:44.835Z,78.60
2019-01-02T08:21:25.498Z,79.20
2019-01-02T08:24:33.817Z,79.30
2019-01-02T08:27:20.449Z,79.30
2019-01-02T08:30:00.441Z,79.30
2019-01-02T08:32:40.843Z,79.60
2019-01-02T08:35:32.967Z,80.00
2019-01-02T08:38:16.685Z,80.20
2019-01-02T08:41:03.510Z,80.30
2019-01-02T08:43:44.173Z,79.90
2019-01-02T08:46:33.226Z,80.00
2019-01-02T08:49:22.483Z,80.00
2019-01-02T08:51:56.644Z,80.00
2019-01-02T08:54:43.188Z,80.50
2019-01-02T08:57:31.238Z,80.30
2019-01-02T09:00:23.508Z,79.90
2019-01-02T09:03:16.226Z,79.80
2019-01-02T09:05:56.659Z,79.80
2019-01-02T09:08:30.627Z,80.60
2019-01-02T09:11:13.987Z,80.50
2019-01-02T09:13:54.518Z,80.20
2019-01-02T09:16:53.406Z,80.00
2019-01-02T09:19:41.540Z,80.50
2019-01-02T09:22:28.379Z,80.30
2019-01-02T09:25:05.838Z,80.50
2019-01-02T09:28:24.677Z,79.90
2019-01-02T09:31:02.257Z,79.80
2019-01-02T09:33:39.162Z,80.10
2019-01-02T09:36:45.258Z,79.60
2019-01-02T09:39:41.983Z,79.70
2019-01-02T09:42:22.386Z,79.60
2019-01-02T09:45:06.188Z,79.80
2019-01-02T09:47:56.990Z,79.60
2019-01-02T09:50:37.298Z,79.20
2019-01-02T09:53:14.503Z,79.80
2019-01-02T09:55:51.968Z,79.80
2019-01-02T09:58:52.404Z,79.80
2019-01-02T10:01:44.735Z,79.40
2019-01-02T10:04:16.505Z,79.70
2019-01-02T10:07:03.266Z,79.70
2019-01-02T10:09:46.489Z,79.80
2019-01-02T10:12:29.801Z,80.00
2019-01-02T10:15:13.397Z,79.40
2019-01-02T10:17:59.526Z,79.80
2019-01-02T10:20:36.924Z,80.30
2019-01-02T10:23:24.825Z,80.10
2019-01-02T10:26:20.760Z,80.50
2019-01-02T10:29:07.360Z,80.60
2019-01-02T10:32:01.847Z,80.00
2019-01-02T10:34:36.152Z,79.90
2019-01-02T10:37:10.382Z,80.10
2019-01-02T10:39:47.867Z,80.50
2019-01-02T10:42:38.992Z,80.20
2019-01-02T10:45:27.311Z,80.50
2019-01-02T10:48:27.734Z,80.60
2019-01-02T10:51:19.798Z,81.10
2019-01-02T10:53:57.072Z,81.30
2019-01-02T10:56:45.306Z,81.00
2019-01-02T10:59:34.824Z,81.60
2019-01-02T11:02:24.236Z,81.40
2019-01-02T11:05:18.430Z,81.60
2019-01-02T11:08:06.607Z,81.40
2019-01-02T11:11:08.450Z,81.70
2019-01-02T11:14:11.782Z,81.70
2019-01-02T11:16:59.975Z,81.60
2019-01-02T11:19:37.680Z,81.60
2019-01-02T11:22:30.556Z,80.70
2019-01-02T11:25:02.355Z,80.70
2019-01-02T11:27:46.133Z,79.10
2019-01-02T11:30:37.647Z,78.40
2019-01-02T11:33:17.173Z,77.90
2019-01-02T11:36:00.425Z,78.10
2019-01-02T11:38:34.812Z,77.80
2019-01-02T11:41:24.621Z,76.50
2019-01-02T11:44:11.314Z,76.50
2019-01-02T11:46:40.034Z,75.70
2019-01-02T11:49:08.771Z,75.90
2019-01-02T11:51:37.505Z,75.20
2019-01-02T11:54:06.259Z,75.10
2019-01-02T11:56:35.047Z,75.20
2019-01-02T11:59:03.532Z,74.80
2019-01-02T12:01:32.495Z,74.40
2019-01-02T12:04:00.940Z,74.90
2019-01-02T12:06:29.391Z,74.80
2019-01-02T12:08:58.392Z,73.80
2019-01-02T12:11:26.841Z,74.10
2019-01-02T12:13:55.285Z,73.60
2019-01-02T12:16:26.143Z,72.60
2019-01-02T12:18:56.269Z,73.50
2019-01-02T12:21:25.875Z,74.50
2019-01-02T12:23:57.985Z,75.30
2019-01-02T12:26:27.354Z,76.70
2019-01-02T12:28:57.625Z,77.30
2019-01-02T12:31:26.155Z,77.00
2019-01-02T12:33:56.385Z,76.60
2019-01-02T12:36:24.881Z,76.90
2019-01-02T12:38:53.713Z,77.80
2019-01-02T12:41:22.158Z,76.20
2019-01-02T12:43:50.697Z,76.20
2019-01-02T12:46:23.561Z,75.20
2019-01-02T12:48:52.354Z,74.80
2019-01-02T12:51:20.808Z,75.40
2019-01-02T12:53:49.716Z,75.00
2019-01-02T12:56:18.512Z,75.60
2019-01-02T12:58:47.280Z,75.90
2019-01-02T13:01:17.962Z,77.10
2019-01-02T13:04:10.424Z,77.80
2019-01-02T13:06:41.947Z,78.60
2019-01-02T13:09:19.504Z,78.60
2019-01-02T13:11:59.613Z,78.90
2019-01-02T13:15:01.456Z,79.20
2019-01-02T13:17:41.622Z,79.40
2019-01-02T13:20:27.842Z,79.50
2019-01-02T13:23:23.283Z,79.10
2019-01-02T13:26:06.017Z,79.30
2019-01-02T13:28:37.547Z,78.40
2019-01-02T13:31:25.475Z,78.40
2019-01-02T13:34:06.248Z,78.60
2019-01-02T13:36:51.926Z,78.60
2019-01-02T13:39:23.782Z,78.60
2019-01-02T13:42:01.255Z,78.00
2019-01-02T13:44:39.239Z,77.20
2019-01-02T13:47:19.786Z,76.50
2019-01-02T13:50:06.643Z,77.00
2019-01-02T13:52:39.483Z,76.70
2019-01-02T13:55:11.537Z,77.20
2019-01-02T13:57:40.006Z,76.20
2019-01-02T14:00:11.238Z,73.80
2019-01-02T14:02:39.754Z,75.00
2019-01-02T14:05:15.295Z,74.80
2019-01-02T14:07:44.380Z,74.20
2019-01-02T14:10:12.824Z,75.00
2019-01-02T14:12:41.285Z,74.80
2019-01-02T14:15:10.085Z,74.80
2019-01-02T14:17:38.551Z,74.50
2019-01-02T14:20:09.294Z,74.50
2019-01-02T14:22:37.771Z,74.40
2019-01-02T14:25:06.886Z,74.80
2019-01-02T14:27:35.354Z,75.20
2019-01-02T14:30:05.366Z,75.40
2019-01-02T14:32:34.174Z,74.60
2019-01-02T14:35:02.619Z,74.30
2019-01-02T14:37:31.077Z,74.00
2019-01-02T14:39:59.551Z,74.30
2019-01-02T14:42:28.062Z,74.20
2019-01-02T14:44:56.508Z,74.60
2019-01-02T14:47:24.978Z,74.10
2019-01-02T14:49:53.418Z,74.00
2019-01-02T14:52:21.879Z,74.20
2019-01-02T14:54:50.782Z,74.50
2019-01-02T14:57:25.116Z,75.10
2019-01-02T14:59:56.120Z,74.90
2019-01-02T15:02:24.563Z,75.00
2019-01-02T15:04:53.107Z,75.10
2019-01-02T15:07:21.558Z,75.40
2019-01-02T15:09:50.003Z,75.60
2019-01-02T15:12:18.443Z,75.60
2019-01-02T15:14:46.886Z,75.60
2019-01-02T15:17:15.343Z,75.20
2019-01-02T15:19:43.808Z,75.30
2019-01-02T15:22:12.580Z,75.60
2019-01-02T15:24:41.344Z,75.60
2019-01-02T15:27:10.129Z,75.60
2019-01-02T15:29:38.920Z,75.20
2019-01-02T15:32:07.619Z,74.90
2019-01-02T15:34:36.071Z,74.50
2019-01-02T15:37:04.513Z,74.10
2019-01-02T15:39:32.971Z,74.00
2019-01-02T15:42:01.443Z,74.20
2019-01-02T15:44:29.895Z,74.60
2019-01-02T15:46:58.675Z,74.40
2019-01-02T15:49:27.132Z,74.80
2019-01-02T15:51:55.582Z,75.00
2019-01-02T15:54:24.051Z,74.80
2019-01-02T15:56:52.496Z,75.00
2019-01-02T15:59:20.935Z,75.00
2019-01-02T16:01:49.373Z,75.40
2019-01-02T16:04:17.835Z,75.50
2019-01-02T16:06:46.636Z,75.50
2019-01-02T16:09:15.147Z,75.70
2019-01-02T16:11:43.928Z,75.90
2019-01-02T16:14:16.912Z,76.20
2019-01-02T16:16:42.596Z,76.50
2019-01-02T16:19:11.496Z,76.70
2019-01-02T16:21:39.953Z,76.90
2019-01-02T16:24:08.739Z,77.20
2019-01-02T16:26:37.195Z,77.30
2019-01-02T16:29:06.016Z,77.70
2019-01-02T16:31:34.492Z,77.80
2019-01-02T16:34:02.962Z,77.80
2019-01-02T16:36:31.391Z,78.00
2019-01-02T16:39:00.159Z,78.20
2019-01-02T16:41:28.598Z,78.40
2019-01-02T16:43:57.064Z,78.50
2019-01-02T16:46:25.902Z,78.80
2019-01-02T16:48:54.792Z,78.60
2019-01-02T16:51:23.555Z,78.70
2019-01-02T16:53:52.019Z,78.70
2019-01-02T16:56:20.827Z,78.60
2019-01-02T16:58:49.619Z,78.60
2019-01-02T17:01:18.077Z,78.40
2019-01-02T17:03:46.512Z,78.60
2019-01-02T17:06:14.947Z,78.70
2019-01-02T17:08:43.407Z,78.70
2019-01-02T17:11:11.863Z,78.90
2019-01-02T17:13:40.603Z,79.10
2019-01-02T17:16:09.062Z,79.20
2019-01-02T17:18:37.554Z,79.50
2019-01-02T17:21:06.342Z,79.70
2019-01-02T17:23:34.861Z,79.80
2019-01-02T17:26:03.631Z,79.70
2019-01-02T17:28:32.072Z,79.80
2019-01-02T17:31:00.528Z,79.70
2019-01-02T17:33:28.975Z,79.50
2019-01-02T17:35:57.720Z,79.20
2019-01-02T17:38:26.620Z,79.30
2019-01-02T17:40:55.088Z,78.90
2019-01-02T17:43:23.522Z,78.80
2019-01-02T17:45:52.265Z,78.80
2019-01-02T17:48:21.056Z,78.70
2019-01-02T17:50:49.854Z,78.70
2019-01-02T17:53:18.367Z,78.70
2019-01-02T17:55:46.831Z,78.70
2019-01-02T17:58:15.256Z,78.90
2019-01-02T18:00:43.712Z,79.20
2019-01-02T18:03:12.531Z,79.40
2019-01-02T18:05:41.016Z,79.60
2019-01-02T18:08:09.453Z,79.60
2019-01-02T18:10:37.907Z,79.60
2019-01-02T18:13:06.371Z,79.50
2019-01-02T18:15:35.074Z,78.80
2019-01-02T18:18:03.939Z,78.50
2019-01-02T18:20:32.404Z,78.60
2019-01-02T18:23:00.834Z,78.50
2019-01-02T18:25:29.287Z,78.20
2019-01-02T18:27:57.763Z,78.20
2019-01-02T18:30:26.231Z,78.50
2019-01-02T18:32:55.016Z,78.60
2019-01-02T18:35:23.468Z,78.80
2019-01-02T18:37:52.292Z,78.50
2019-01-02T18:40:21.000Z,78.10
2019-01-02T18:42:49.775Z,78.20
2019-01-02T18:45:18.635Z,78.00
2019-01-02T18:47:47.074Z,78.10
2019-01-02T18:50:15.930Z,78.30
2019-01-02T18:52:44.395Z,79.20
2019-01-02T18:55:13.180Z,80.20
2019-01-02T18:57:41.636Z,79.70
2019-01-02T19:00:11.580Z,79.80
2019-01-02T19:02:40.368Z,79.90
2019-01-02T19:05:09.150Z,80.10
2019-01-02T19:07:37.587Z,80.10
2019-01-02T19:10:06.874Z,80.20
2019-01-02T19:12:35.310Z,80.50
2019-01-02T19:15:04.608Z,80.70
2019-01-02T19:17:33.027Z,80.70
2019-01-02T19:20:01.854Z,80.50
2019-01-02T19:22:30.330Z,80.50
2019-01-02T19:24:59.088Z,80.30
2019-01-02T19:27:27.810Z,80.70
2019-01-02T19:29:56.259Z,80.90
2019-01-02T19:32:25.077Z,81.00
2019-01-02T19:34:53.505Z,81.30
2019-01-02T19:37:21.993Z,81.50
2019-01-02T19:39:50.835Z,81.50
2019-01-02T19:42:19.312Z,81.50
2019-01-02T19:44:48.101Z,81.60
2019-01-02T19:47:16.912Z,82.20
2019-01-02T19:49:45.367Z,82.40
2019-01-02T19:52:13.839Z,82.60
2019-01-02T19:54:42.534Z,82.80
2019-01-02T19:57:11.004Z,82.70
2019-01-02T19:59:39.789Z,82.70
2019-01-02T20:02:08.313Z,83.10
2019-01-02T20:04:36.867Z,83.80
2019-01-02T20:07:05.645Z,84.10
2019-01-02T20:09:34.083Z,84.40
2019-01-02T20:12:02.550Z,84.80
2019-01-02T20:14:31.088Z,85.80
2019-01-02T20:16:59.560Z,85.70
2019-01-02T20:19:28.015Z,85.90
2019-01-02T20:21:56.489Z,86.20
2019-01-02T20:24:25.314Z,86.50
2019-01-02T20:26:55.528Z,86.60
2019-01-02T20:29:23.944Z,86.80
2019-01-02T20:31:52.412Z,87.20
2019-01-02T20:34:20.945Z,87.30
2019-01-02T20:36:49.573Z,87.60
2019-01-02T20:39:18.261Z,87.80
2019-01-02T20:41:46.927Z,88.10
2019-01-02T20:44:15.443Z,88.10
2019-01-02T20:46:43.923Z,88.30
2019-01-02T20:49:12.530Z,88.30
2019-01-02T20:51:41.066Z,88.40
2019-01-02T20:54:09.612Z,88.60
2019-01-02T20:56:38.801Z,88.80
2019-01-02T20:59:07.324Z,89.10
2019-01-02T21:01:35.786Z,89.20
2019-01-02T21:04:04.251Z,89.20
2019-01-02T21:06:32.712Z,89.20
2019-01-02T21:09:01.179Z,89.40
2019-01-02T21:11:30.004Z,89.50
2019-01-02T21:13:58.799Z,89.70
2019-01-02T21:16:27.518Z,89.90
2019-01-02T21:18:56.157Z,90.20
2019-01-02T21:21:25.963Z,90.10
2019-01-02T21:23:54.434Z,90.10
2019-01-02T21:26:22.874Z,90.10
2019-01-02T21:28:51.355Z,90.20
2019-01-02T21:31:20.081Z,90.50
2019-01-02T21:33:48.567Z,90.60
2019-01-02T21:36:17.368Z,90.60
2019-01-02T21:38:46.150Z,90.60
2019-01-02T21:41:14.939Z,90.80
2019-01-02T21:43:43.428Z,91.00
2019-01-02T21:46:11.978Z,91.10
2019-01-02T21:48:41.388Z,91.40
2019-01-02T21:51:09.940Z,91.70
2019-01-02T21:53:38.408Z,91.80
2019-01-02T21:56:06.853Z,91.90
2019-01-02T21:58:35.340Z,91.90
2019-01-02T22:01:03.783Z,91.90
2019-01-02T22:03:32.591Z,92.00
2019-01-02T22:06:01.063Z,92.20
2019-01-02T22:08:29.725Z,92.20
2019-01-02T22:10:58.174Z,92.20
2019-01-02T22:13:27.022Z,92.50
2019-01-02T22:15:55.821Z,93.00
2019-01-02T22:18:24.683Z,93.00
2019-01-02T22:20:53.317Z,93.00
2019-01-02T22:23:22.209Z,92.90
2019-01-02T22:25:50.931Z,92.90
2019-01-02T22:28:19.678Z,92.80
2019-01-02T22:30:48.140Z,92.90
2019-01-02T22:33:16.625Z,92.90
2019-01-02T22:35:45.083Z,92.90
2019-01-02T22:38:13.539Z,93.00
2019-01-02T22:40:42.006Z,93.10
2019-01-02T22:43:10.958Z,93.20
2019-01-02T22:45:39.421Z,93.30
2019-01-02T22:48:07.895Z,93.40
2019-01-02T22:50:36.374Z,93.40
2019-01-02T22:53:04.864Z,93.40
2019-01-02T22:55:33.726Z,93.40
2019-01-02T22:58:02.294Z,93.40
2019-01-02T23:00:38.524Z,93.50
2019-01-02T23:03:09.243Z,93.50
2019-01-02T23:05:55.531Z,93.60
2019-01-02T23:08:41.815Z,93.60
2019-01-02T23:11:21.298Z,93.70
2019-01-02T23:13:51.463Z,93.70
2019-01-02T23:16:33.524Z,93.80
2019-01-02T23:19:20.043Z,93.90
2019-01-02T23:21:58.668Z,93.90
2019-01-02T23:24:35.138Z,93.90
2019-01-02T23:27:10.972Z,93.90
2019-01-02T23:29:57.896Z,93.90
2019-01-02T23:32:28.001Z,94.00
2019-01-02T23:34:58.129Z,94.00
2019-01-02T23:37:30.931Z,94.00
2019-01-02T23:40:06.813Z,94.10
2019-01-02T23:42:52.785Z,94.10
2019-01-02T23:45:37.865Z,94.00
2019-01-02T23:48:07.958Z,94.00
2019-01-02T23:50:56.486Z,94.20
2019-01-02T23:53:26.653Z,94.00
2019-01-02T23:56:05.545Z,94.30
2019-01-02T23:58:35.956Z,94.20
